createdAt,value
2017-11-18T00:00:51.782Z,1007.13
2017-11-18T00:02:00.437Z,1007.05
2017-11-18T00:03:09.173Z,1007.08
2017-11-18T00:04:17.718Z,1007.07
2017-11-18T00:05:26.377Z,1007.12
2017-11-18T00:06:35.046Z,1007.09
2017-11-18T00:07:43.814Z,1007.03
2017-11-18T00:08:52.423Z,1007.13
2017-11-18T00:10:00.986Z,1007.08
2017-11-18T00:11:09.697Z,1007.08
2017-11-18T00:12:18.319Z,1007.17
2017-11-18T00:13:26.946Z,1007.11
2017-11-18T00:14:35.775Z,1007.19
2017-11-18T00:15:44.322Z,1007.18
2017-11-18T00:16:52.946Z,1007.24
2017-11-18T00:18:01.630Z,1007.21
2017-11-18T00:19:10.313Z,1007.22
2017-11-18T00:20:18.950Z,1007.19
2017-11-18T00:21:28.084Z,1007.13
2017-11-18T00:22:36.193Z,1007.16
2017-11-18T00:23:44.953Z,1007.14
2017-11-18T00:24:53.496Z,1007.15
2017-11-18T00:26:02.785Z,1007.11
2017-11-18T00:27:10.991Z,1007.15
2017-11-18T00:28:19.591Z,1007.12
2017-11-18T00:29:28.139Z,1007.15
2017-11-18T00:30:36.838Z,1007.08
2017-11-18T00:31:45.427Z,1007.10
2017-11-18T00:32:54.058Z,1007.08
2017-11-18T00:34:02.730Z,1007.09
2017-11-18T00:35:11.376Z,1007.14
2017-11-18T00:36:20.601Z,1007.10
2017-11-18T00:37:28.698Z,1007.11
2017-11-18T00:38:37.323Z,1007.07
2017-11-18T00:39:46.017Z,1007.02
2017-11-18T00:40:54.729Z,1007.00
2017-11-18T00:42:03.308Z,1007.02
2017-11-18T00:43:12.151Z,1007.08
2017-11-18T00:44:20.596Z,1006.99
2017-11-18T00:45:29.235Z,1007.09
2017-11-18T00:46:37.977Z,1007.14
2017-11-18T00:47:47.351Z,1007.08
2017-11-18T00:48:55.206Z,1007.02
2017-11-18T00:50:03.863Z,1007.04
2017-11-18T00:51:12.488Z,1007.12
2017-11-18T00:52:21.920Z,1007.16
2017-11-18T00:53:30.345Z,1007.14
2017-11-18T00:54:38.446Z,1007.06
2017-11-18T00:55:47.122Z,1007.01
2017-11-18T00:56:55.773Z,1007.05
2017-11-18T00:58:04.488Z,1007.05
2017-11-18T00:59:13.060Z,1007.15
2017-11-18T01:00:21.722Z,1007.04
2017-11-18T01:01:30.476Z,1007.12
2017-11-18T01:02:39.037Z,1007.15
2017-11-18T01:03:47.666Z,1007.08
2017-11-18T01:04:56.915Z,1007.05
2017-11-18T01:06:04.967Z,1007.07
2017-11-18T01:07:13.664Z,1007.13
2017-11-18T01:08:22.864Z,1007.10
2017-11-18T01:09:30.919Z,1007.09
2017-11-18T01:10:39.660Z,1007.04
2017-11-18T01:11:48.221Z,1007.12
2017-11-18T01:12:56.886Z,1007.09
2017-11-18T01:14:05.515Z,1007.10
2017-11-18T01:15:14.172Z,1007.02
2017-11-18T01:16:22.832Z,1007.13
2017-11-18T01:17:31.465Z,1007.13
2017-11-18T01:18:40.331Z,1007.15
2017-11-18T01:19:48.860Z,1007.20
2017-11-18T01:20:57.420Z,1007.18
2017-11-18T01:22:06.085Z,1007.21
2017-11-18T01:23:14.804Z,1007.17
2017-11-18T01:24:23.474Z,1007.23
2017-11-18T01:25:32.021Z,1007.19
2017-11-18T01:26:40.681Z,1007.18
2017-11-18T01:27:49.352Z,1007.09
2017-11-18T01:28:58.034Z,1007.05
2017-11-18T01:30:07.234Z,1007.08
2017-11-18T01:31:15.269Z,1007.05
2017-11-18T01:32:23.969Z,1007.04
2017-11-18T01:33:32.603Z,1007.06
2017-11-18T01:34:41.287Z,1006.99
2017-11-18T01:35:49.969Z,1006.95
2017-11-18T01:36:58.511Z,1006.96
2017-11-18T01:38:07.531Z,1007.05
2017-11-18T01:39:15.834Z,1007.14
2017-11-18T01:40:25.533Z,1007.21
2017-11-18T01:41:33.105Z,1007.27
2017-11-18T01:42:41.739Z,1007.17
2017-11-18T01:43:50.647Z,1007.13
2017-11-18T01:44:59.036Z,1006.98
2017-11-18T01:46:07.759Z,1007.04
2017-11-18T01:47:16.552Z,1007.01
2017-11-18T01:48:24.961Z,1007.10
2017-11-18T01:49:33.632Z,1007.06
2017-11-18T01:50:42.239Z,1007.07
2017-11-18T01:51:50.879Z,1007.08
2017-11-18T01:52:59.507Z,1007.03
2017-11-18T01:54:08.179Z,1007.13
2017-11-18T01:55:16.785Z,1007.13
2017-11-18T01:56:25.416Z,1007.17
2017-11-18T01:57:34.055Z,1007.09
2017-11-18T01:58:42.881Z,1007.01
2017-11-18T01:59:51.386Z,1007.00
2017-11-18T02:00:59.966Z,1007.13
2017-11-18T02:02:08.620Z,1006.92
2017-11-18T02:03:17.230Z,1006.93
2017-11-18T02:04:25.867Z,1007.01
2017-11-18T02:05:35.130Z,1006.93
2017-11-18T02:06:43.226Z,1006.89
2017-11-18T02:07:52.347Z,1006.85
2017-11-18T02:09:00.354Z,1006.80
2017-11-18T02:10:08.973Z,1006.83
2017-11-18T02:11:17.676Z,1006.80
2017-11-18T02:12:33.020Z,1006.80
2017-11-18T02:13:43.409Z,1006.79
2017-11-18T02:14:52.043Z,1006.73
2017-11-18T02:16:00.630Z,1006.65
2017-11-18T02:17:10.337Z,1006.65
2017-11-18T02:18:17.946Z,1006.66
2017-11-18T02:19:27.152Z,1006.69
2017-11-18T02:20:35.168Z,1006.75
2017-11-18T02:21:43.786Z,1006.59
2017-11-18T02:22:52.453Z,1006.64
2017-11-18T02:24:00.993Z,1006.45
2017-11-18T02:25:09.562Z,1006.47
2017-11-18T02:26:18.210Z,1006.45
2017-11-18T02:27:26.889Z,1006.55
2017-11-18T02:28:35.387Z,1006.56
2017-11-18T02:29:44.122Z,1006.51
2017-11-18T02:30:52.644Z,1006.54
2017-11-18T02:32:01.325Z,1006.51
2017-11-18T02:33:09.936Z,1006.59
2017-11-18T02:34:18.432Z,1006.54
2017-11-18T02:35:27.064Z,1006.54
2017-11-18T02:36:36.203Z,1006.64
2017-11-18T02:37:44.258Z,1006.62
2017-11-18T02:38:52.871Z,1006.55
2017-11-18T02:40:01.502Z,1006.54
2017-11-18T02:41:10.196Z,1006.50
2017-11-18T02:42:18.692Z,1006.37
2017-11-18T02:43:27.301Z,1006.38
2017-11-18T02:44:35.913Z,1006.42
2017-11-18T02:45:44.586Z,1006.47
2017-11-18T02:46:53.240Z,1006.41
2017-11-18T02:48:01.735Z,1006.40
2017-11-18T02:49:10.387Z,1006.30
2017-11-18T02:50:19.194Z,1006.36
2017-11-18T02:51:27.565Z,1006.38
2017-11-18T02:52:36.154Z,1006.45
2017-11-18T02:53:44.793Z,1006.43
2017-11-18T02:54:53.391Z,1006.43
2017-11-18T02:56:02.370Z,1006.31
2017-11-18T02:57:10.591Z,1006.41
2017-11-18T02:58:19.252Z,1006.42
2017-11-18T02:59:27.867Z,1006.42
2017-11-18T03:00:36.424Z,1006.33
2017-11-18T03:01:45.155Z,1006.38
2017-11-18T03:02:53.620Z,1006.27
2017-11-18T03:04:02.371Z,1006.20
2017-11-18T03:05:10.816Z,1006.29
2017-11-18T03:06:19.670Z,1006.23
2017-11-18T03:07:28.011Z,1006.09
2017-11-18T03:08:36.708Z,1006.08
2017-11-18T03:09:45.213Z,1006.19
2017-11-18T03:10:53.799Z,1006.18
2017-11-18T03:12:02.460Z,1006.17
2017-11-18T03:13:10.971Z,1006.10
2017-11-18T03:14:19.554Z,1005.92
2017-11-18T03:15:28.152Z,1006.08
2017-11-18T03:16:36.772Z,1006.07
2017-11-18T03:17:45.331Z,1006.10
2017-11-18T03:18:54.008Z,1006.04
2017-11-18T03:20:02.516Z,1006.11
2017-11-18T03:21:11.089Z,1006.03
2017-11-18T03:22:19.806Z,1005.95
2017-11-18T03:23:28.236Z,1006.11
2017-11-18T03:24:36.846Z,1006.04
2017-11-18T03:25:45.464Z,1006.08
2017-11-18T03:26:53.991Z,1006.09
2017-11-18T03:28:02.528Z,1005.96
2017-11-18T03:29:11.258Z,1006.03
2017-11-18T03:30:21.230Z,1005.96
2017-11-18T03:31:29.071Z,1005.82
2017-11-18T03:32:36.902Z,1005.94
2017-11-18T03:33:45.512Z,1006.10
2017-11-18T03:34:54.212Z,1005.95
2017-11-18T03:36:02.702Z,1006.06
2017-11-18T03:37:11.284Z,1005.96
2017-11-18T03:38:19.713Z,1006.11
2017-11-18T03:39:28.288Z,1006.11
2017-11-18T03:40:36.885Z,1006.16
2017-11-18T03:41:45.996Z,1006.09
2017-11-18T03:42:54.002Z,1006.08
2017-11-18T03:44:02.576Z,1005.88
2017-11-18T03:45:11.140Z,1005.80
2017-11-18T03:46:19.799Z,1005.88
2017-11-18T03:47:28.567Z,1005.83
2017-11-18T03:48:36.861Z,1005.82
2017-11-18T03:49:45.431Z,1005.81
2017-11-18T03:50:54.105Z,1005.86
2017-11-18T03:52:02.660Z,1005.83
2017-11-18T03:53:11.231Z,1005.94
2017-11-18T03:54:19.718Z,1005.87
2017-11-18T03:55:28.281Z,1005.86
2017-11-18T03:56:36.832Z,1005.93
2017-11-18T03:57:45.438Z,1005.89
2017-11-18T03:58:53.987Z,1005.84
2017-11-18T04:00:03.180Z,1005.91
2017-11-18T04:01:11.131Z,1005.80
2017-11-18T04:02:19.711Z,1005.80
2017-11-18T04:03:28.260Z,1005.90
2017-11-18T04:04:36.824Z,1005.79
2017-11-18T04:05:46.017Z,1005.78
2017-11-18T04:06:53.968Z,1005.94
2017-11-18T04:08:02.569Z,1005.91
2017-11-18T04:09:11.087Z,1005.88
2017-11-18T04:10:19.665Z,1005.96
2017-11-18T04:11:28.347Z,1006.03
2017-11-18T04:12:37.323Z,1005.98
2017-11-18T04:13:45.464Z,1006.02
2017-11-18T04:14:54.408Z,1006.00
2017-11-18T04:16:02.477Z,1005.88
2017-11-18T04:17:11.039Z,1005.81
2017-11-18T04:18:19.875Z,1005.82
2017-11-18T04:19:28.300Z,1005.86
2017-11-18T04:20:36.708Z,1005.83
2017-11-18T04:21:45.269Z,1005.83
2017-11-18T04:22:53.838Z,1005.86
2017-11-18T04:24:02.530Z,1005.88
2017-11-18T04:25:10.934Z,1005.93
2017-11-18T04:26:19.478Z,1006.09
2017-11-18T04:27:28.021Z,1005.91
2017-11-18T04:28:36.594Z,1005.89
2017-11-18T04:29:45.195Z,1005.88
2017-11-18T04:30:53.677Z,1005.97
2017-11-18T04:32:02.390Z,1005.88
2017-11-18T04:33:11.346Z,1005.97
2017-11-18T04:34:19.305Z,1005.82
2017-11-18T04:35:27.934Z,1005.82
2017-11-18T04:36:36.400Z,1005.68
2017-11-18T04:37:44.946Z,1005.78
2017-11-18T04:38:53.497Z,1005.91
2017-11-18T04:40:02.032Z,1005.86
2017-11-18T04:41:10.669Z,1005.76
2017-11-18T04:42:19.115Z,1005.83
2017-11-18T04:43:27.670Z,1005.64
2017-11-18T04:44:36.379Z,1005.87
2017-11-18T04:45:44.799Z,1005.83
2017-11-18T04:46:53.284Z,1005.79
2017-11-18T04:48:01.824Z,1005.68
2017-11-18T04:49:10.376Z,1005.88
2017-11-18T04:50:18.924Z,1005.71
2017-11-18T04:51:27.414Z,1005.72
2017-11-18T04:52:35.968Z,1005.64
2017-11-18T04:53:44.810Z,1005.52
2017-11-18T04:54:53.026Z,1005.69
2017-11-18T04:56:01.735Z,1005.59
2017-11-18T04:57:10.093Z,1005.29
2017-11-18T04:58:18.645Z,1005.54
2017-11-18T04:59:27.180Z,1005.46
2017-11-18T05:00:35.692Z,1005.42
2017-11-18T05:01:44.265Z,1005.38
2017-11-18T05:02:52.765Z,1005.42
2017-11-18T05:04:01.325Z,1005.44
2017-11-18T05:05:09.836Z,1005.59
2017-11-18T05:06:18.498Z,1005.56
2017-11-18T05:07:26.905Z,1005.57
2017-11-18T05:08:35.955Z,1005.68
2017-11-18T05:09:44.060Z,1005.71
2017-11-18T05:10:53.072Z,1005.55
2017-11-18T05:12:01.043Z,1005.49
2017-11-18T05:13:10.572Z,1005.61
2017-11-18T05:14:18.474Z,1005.66
2017-11-18T05:15:26.757Z,1005.49
2017-11-18T05:16:35.170Z,1005.38
2017-11-18T05:17:43.708Z,1005.41
2017-11-18T05:18:52.889Z,1005.27
2017-11-18T05:20:00.815Z,1005.31
2017-11-18T05:21:09.417Z,1005.38
2017-11-18T05:22:18.306Z,1005.31
2017-11-18T05:23:26.398Z,1005.46
2017-11-18T05:24:35.482Z,1005.51
2017-11-18T05:25:43.546Z,1005.62
2017-11-18T05:26:52.604Z,1005.62
2017-11-18T05:28:00.570Z,1005.48
2017-11-18T05:29:09.202Z,1005.52
2017-11-18T05:30:17.706Z,1005.52
2017-11-18T05:31:26.181Z,1005.49
2017-11-18T05:32:34.702Z,1005.34
2017-11-18T05:33:43.371Z,1005.33
2017-11-18T05:34:51.828Z,1005.43
2017-11-18T05:36:00.417Z,1005.35
2017-11-18T05:37:09.520Z,1005.14
2017-11-18T05:38:17.525Z,1005.16
2017-11-18T05:39:26.040Z,1005.23
2017-11-18T05:40:34.512Z,1005.15
2017-11-18T05:41:43.049Z,1004.90
2017-11-18T05:42:51.657Z,1005.10
2017-11-18T05:44:00.193Z,1004.95
2017-11-18T05:45:08.694Z,1005.08
2017-11-18T05:46:17.280Z,1005.00
2017-11-18T05:47:25.764Z,1005.05
2017-11-18T05:48:34.395Z,1005.13
2017-11-18T05:49:42.856Z,1005.02
2017-11-18T05:50:51.521Z,1005.08
2017-11-18T05:52:00.013Z,1005.06
2017-11-18T05:53:08.620Z,1005.15
2017-11-18T05:54:17.070Z,1005.24
2017-11-18T05:55:25.889Z,1005.28
2017-11-18T05:56:34.246Z,1005.20
2017-11-18T05:57:42.753Z,1005.23
2017-11-18T05:58:51.432Z,1005.36
2017-11-18T05:59:59.870Z,1005.30
2017-11-18T06:01:08.960Z,1005.15
2017-11-18T06:02:17.157Z,1005.31
2017-11-18T06:03:25.552Z,1005.29
2017-11-18T06:04:34.112Z,1005.31
2017-11-18T06:05:42.686Z,1005.29
2017-11-18T06:06:51.899Z,1005.25
2017-11-18T06:07:59.820Z,1005.16
2017-11-18T06:09:08.500Z,1005.31
2017-11-18T06:10:17.973Z,1005.32
2017-11-18T06:11:25.543Z,1005.29
2017-11-18T06:12:34.066Z,1005.26
2017-11-18T06:13:43.367Z,1005.27
2017-11-18T06:14:51.269Z,1005.25
2017-11-18T06:15:59.793Z,1005.28
2017-11-18T06:17:08.331Z,1005.19
2017-11-18T06:18:16.891Z,1005.23
2017-11-18T06:19:25.457Z,1005.27
2017-11-18T06:20:34.363Z,1005.21
2017-11-18T06:21:42.592Z,1005.26
2017-11-18T06:22:51.224Z,1005.27
2017-11-18T06:24:00.313Z,1005.30
2017-11-18T06:25:08.279Z,1005.30
2017-11-18T06:26:16.869Z,1005.28
2017-11-18T06:27:25.525Z,1005.36
2017-11-18T06:28:33.999Z,1005.33
2017-11-18T06:29:42.545Z,1005.34
2017-11-18T06:30:51.432Z,1005.41
2017-11-18T06:31:59.689Z,1005.41
2017-11-18T06:33:08.303Z,1005.36
2017-11-18T06:34:16.788Z,1005.33
2017-11-18T06:35:25.362Z,1005.29
2017-11-18T06:36:33.940Z,1005.32
2017-11-18T06:37:42.525Z,1005.28
2017-11-18T06:38:51.032Z,1005.33
2017-11-18T06:39:59.587Z,1005.29
2017-11-18T06:41:08.266Z,1005.37
2017-11-18T06:42:16.699Z,1005.31
2017-11-18T06:43:25.267Z,1005.19
2017-11-18T06:44:33.813Z,1005.14
2017-11-18T06:45:42.362Z,1005.15
2017-11-18T06:46:51.440Z,1005.08
2017-11-18T06:47:59.499Z,1005.27
2017-11-18T06:49:08.001Z,1005.30
2017-11-18T06:50:16.552Z,1005.35
2017-11-18T06:51:25.132Z,1005.26
2017-11-18T06:52:33.647Z,1005.24
2017-11-18T06:53:42.230Z,1005.30
2017-11-18T06:54:50.834Z,1005.29
2017-11-18T06:55:59.296Z,1005.27
2017-11-18T06:57:08.451Z,1005.10
2017-11-18T06:58:16.459Z,1005.11
2017-11-18T06:59:24.965Z,1005.24
2017-11-18T07:00:33.480Z,1005.32
2017-11-18T07:01:42.416Z,1005.24
2017-11-18T07:02:50.566Z,1005.18
2017-11-18T07:03:59.088Z,1005.17
2017-11-18T07:05:07.625Z,1005.32
2017-11-18T07:06:16.384Z,1005.37
2017-11-18T07:07:24.830Z,1005.28
2017-11-18T07:08:33.909Z,1005.35
2017-11-18T07:09:41.920Z,1005.24
2017-11-18T07:10:50.512Z,1005.30
2017-11-18T07:11:59.199Z,1005.34
2017-11-18T07:13:07.525Z,1005.28
2017-11-18T07:14:16.059Z,1005.21
2017-11-18T07:15:24.642Z,1005.28
2017-11-18T07:16:33.034Z,1005.30
2017-11-18T07:17:41.641Z,1005.26
2017-11-18T07:18:50.263Z,1005.25
2017-11-18T07:19:58.767Z,1005.11
2017-11-18T07:21:07.546Z,1005.21
2017-11-18T07:22:16.066Z,1005.30
2017-11-18T07:23:24.831Z,1005.29
2017-11-18T07:24:32.827Z,1005.36
2017-11-18T07:25:41.506Z,1005.25
2017-11-18T07:26:49.878Z,1005.17
2017-11-18T07:27:58.460Z,1005.21
2017-11-18T07:29:06.965Z,1005.26
2017-11-18T07:30:15.638Z,1005.13
2017-11-18T07:31:24.139Z,1005.25
2017-11-18T07:32:32.592Z,1005.38
2017-11-18T07:33:41.254Z,1005.28
2017-11-18T07:34:50.634Z,1005.32
2017-11-18T07:35:58.179Z,1005.28
2017-11-18T07:37:06.708Z,1005.27
2017-11-18T07:38:15.513Z,1005.17
2017-11-18T07:39:23.773Z,1005.21
2017-11-18T07:40:32.318Z,1005.22
2017-11-18T07:41:40.936Z,1005.23
2017-11-18T07:42:50.341Z,1005.29
2017-11-18T07:43:57.959Z,1005.36
2017-11-18T07:45:06.559Z,1005.28
2017-11-18T07:46:15.020Z,1005.27
2017-11-18T07:47:23.644Z,1005.27
2017-11-18T07:48:32.098Z,1005.25
2017-11-18T07:49:40.707Z,1005.17
2017-11-18T07:50:49.638Z,1005.07
2017-11-18T07:51:57.676Z,1005.11
2017-11-18T07:53:06.996Z,1005.15
2017-11-18T07:54:14.771Z,1005.07
2017-11-18T07:55:23.907Z,1005.06
2017-11-18T07:56:32.341Z,1004.97
2017-11-18T07:57:40.387Z,1005.03
2017-11-18T07:58:48.956Z,1005.07
2017-11-18T07:59:57.486Z,1005.15
2017-11-18T08:01:06.130Z,1005.21
2017-11-18T08:02:14.735Z,1005.03
2017-11-18T08:03:23.568Z,1005.06
2017-11-18T08:04:31.689Z,1005.15
2017-11-18T08:05:40.870Z,1005.17
2017-11-18T08:06:48.935Z,1005.11
2017-11-18T08:07:57.311Z,1005.15
2017-11-18T08:09:06.034Z,1005.15
2017-11-18T08:10:15.093Z,1005.16
2017-11-18T08:11:23.006Z,1005.22
2017-11-18T08:12:31.626Z,1005.19
2017-11-18T08:13:40.166Z,1005.17
2017-11-18T08:14:48.688Z,1005.13
2017-11-18T08:15:57.252Z,1005.28
2017-11-18T08:17:05.884Z,1005.23
2017-11-18T08:18:14.382Z,1005.27
2017-11-18T08:19:23.292Z,1005.21
2017-11-18T08:20:31.593Z,1005.27
2017-11-18T08:21:40.095Z,1005.12
2017-11-18T08:22:48.657Z,1005.23
2017-11-18T08:23:57.328Z,1005.15
2017-11-18T08:25:05.898Z,1005.05
2017-11-18T08:26:14.502Z,1004.97
2017-11-18T08:27:23.548Z,1005.12
2017-11-18T08:28:31.542Z,1004.98
2017-11-18T08:29:40.132Z,1005.02
2017-11-18T08:30:48.840Z,1005.11
2017-11-18T08:31:57.438Z,1005.10
2017-11-18T08:33:05.847Z,1005.12
2017-11-18T08:34:15.005Z,1004.99
2017-11-18T08:35:23.066Z,1004.97
2017-11-18T08:36:32.106Z,1005.04
2017-11-18T08:37:40.378Z,1005.22
2017-11-18T08:38:49.323Z,1005.12
2017-11-18T08:39:57.399Z,1005.12
2017-11-18T08:41:06.105Z,1005.09
2017-11-18T08:42:14.637Z,1005.01
2017-11-18T08:43:23.217Z,1005.11
2017-11-18T08:44:31.768Z,1005.09
2017-11-18T08:45:40.304Z,1005.18
2017-11-18T08:46:49.046Z,1005.14
2017-11-18T08:47:57.480Z,1005.05
2017-11-18T08:49:06.927Z,1005.03
2017-11-18T08:50:14.696Z,1004.98
2017-11-18T08:51:23.712Z,1004.84
2017-11-18T08:52:31.793Z,1005.02
2017-11-18T08:53:40.495Z,1004.91
2017-11-18T08:54:49.842Z,1004.96
2017-11-18T08:55:58.047Z,1005.02
2017-11-18T08:57:06.142Z,1004.83
2017-11-18T08:58:14.702Z,1004.77
2017-11-18T08:59:23.809Z,1004.97
2017-11-18T09:00:33.477Z,1004.87
2017-11-18T09:01:40.440Z,1004.94
2017-11-18T09:02:49.160Z,1004.89
2017-11-18T09:03:58.690Z,1004.77
2017-11-18T09:05:06.184Z,1004.76
2017-11-18T09:06:14.764Z,1004.77
2017-11-18T09:07:23.323Z,1004.74
2017-11-18T09:08:32.692Z,1004.60
2017-11-18T09:09:40.506Z,1004.50
2017-11-18T09:10:49.159Z,1004.35
2017-11-18T09:11:57.662Z,1004.45
2017-11-18T09:13:06.272Z,1004.42
2017-11-18T09:14:14.884Z,1004.46
2017-11-18T09:15:23.505Z,1004.48
2017-11-18T09:16:32.671Z,1004.51
2017-11-18T09:17:40.694Z,1004.50
2017-11-18T09:18:49.845Z,1004.47
2017-11-18T09:19:58.016Z,1004.49
2017-11-18T09:21:07.180Z,1004.45
2017-11-18T09:22:15.202Z,1004.57
2017-11-18T09:23:23.801Z,1004.57
2017-11-18T09:24:32.458Z,1004.40
2017-11-18T09:25:41.390Z,1004.39
2017-11-18T09:26:49.774Z,1004.39
2017-11-18T09:27:58.360Z,1004.62
2017-11-18T09:29:07.099Z,1004.50
2017-11-18T09:30:15.657Z,1004.55
2017-11-18T09:31:25.117Z,1004.53
2017-11-18T09:32:33.068Z,1004.47
2017-11-18T09:33:41.701Z,1004.34
2017-11-18T09:34:50.794Z,1004.55
2017-11-18T09:35:58.982Z,1004.41
2017-11-18T09:37:07.739Z,1004.48
2017-11-18T09:38:16.436Z,1004.37
2017-11-18T09:39:26.524Z,1004.39
2017-11-18T09:40:34.643Z,1004.50
2017-11-18T09:41:42.306Z,1004.44
2017-11-18T09:42:51.100Z,1004.49
2017-11-18T09:43:59.710Z,1004.43
2017-11-18T09:45:08.403Z,1004.33
2017-11-18T09:46:17.000Z,1004.41
2017-11-18T09:47:25.652Z,1004.44
2017-11-18T09:48:34.366Z,1004.47
2017-11-18T09:49:43.026Z,1004.57
2017-11-18T09:50:52.401Z,1004.52
2017-11-18T09:52:00.368Z,1004.46
2017-11-18T09:53:09.166Z,1004.41
2017-11-18T09:54:17.865Z,1004.26
2017-11-18T09:55:26.441Z,1004.26
2017-11-18T09:56:35.183Z,1004.30
2017-11-18T09:57:43.821Z,1004.46
2017-11-18T09:58:52.702Z,1004.57
2017-11-18T10:00:01.222Z,1004.40
2017-11-18T10:01:10.322Z,1004.40
2017-11-18T10:02:18.764Z,1004.42
2017-11-18T10:03:27.475Z,1004.58
2017-11-18T10:04:36.015Z,1004.52
2017-11-18T10:05:44.728Z,1004.59
2017-11-18T10:06:53.614Z,1004.46
2017-11-18T10:08:02.219Z,1004.37
2017-11-18T10:09:11.367Z,1004.21
2017-11-18T10:10:19.499Z,1004.28
2017-11-18T10:11:28.531Z,1004.39
2017-11-18T10:12:37.060Z,1004.30
2017-11-18T10:13:45.624Z,1004.28
2017-11-18T10:14:54.486Z,1004.16
2017-11-18T10:16:03.022Z,1004.17
2017-11-18T10:17:12.849Z,1004.28
2017-11-18T10:18:20.454Z,1004.42
2017-11-18T10:19:29.666Z,1004.50
2017-11-18T10:20:37.891Z,1004.29
2017-11-18T10:21:46.590Z,1004.19
2017-11-18T10:22:55.806Z,1004.49
2017-11-18T10:24:04.517Z,1004.28
2017-11-18T10:25:12.725Z,1004.14
2017-11-18T10:26:21.437Z,1004.18
2017-11-18T10:27:30.416Z,1004.26
2017-11-18T10:28:38.950Z,1004.50
2017-11-18T10:29:47.659Z,1004.18
2017-11-18T10:30:56.903Z,1004.18
2017-11-18T10:32:05.264Z,1004.23
2017-11-18T10:33:14.439Z,1004.25
2017-11-18T10:34:22.433Z,1004.03
2017-11-18T10:35:31.245Z,1003.96
2017-11-18T10:36:39.866Z,1004.06
2017-11-18T10:37:48.854Z,1004.05
2017-11-18T10:38:57.376Z,1004.04
2017-11-18T10:40:06.135Z,1003.88
2017-11-18T10:41:14.844Z,1003.98
2017-11-18T10:42:23.828Z,1004.22
2017-11-18T10:43:32.205Z,1004.14
2017-11-18T10:44:40.908Z,1004.16
2017-11-18T10:45:49.624Z,1003.84
2017-11-18T10:46:58.433Z,1003.90
2017-11-18T10:48:07.097Z,1003.88
2017-11-18T10:49:15.864Z,1004.08
2017-11-18T10:50:24.528Z,1003.95
2017-11-18T10:51:33.291Z,1003.97
2017-11-18T10:52:42.500Z,1003.98
2017-11-18T10:53:50.898Z,1003.82
2017-11-18T10:54:59.512Z,1003.73
2017-11-18T10:56:08.225Z,1003.72
2017-11-18T10:57:17.039Z,1003.69
2017-11-18T10:58:25.782Z,1003.75
2017-11-18T10:59:34.512Z,1003.77
2017-11-18T11:00:43.298Z,1003.72
2017-11-18T11:01:51.993Z,1003.59
2017-11-18T11:03:00.837Z,1003.58
2017-11-18T11:04:09.541Z,1003.61
2017-11-18T11:05:18.833Z,1003.48
2017-11-18T11:06:27.208Z,1003.46
2017-11-18T11:07:36.128Z,1003.74
2017-11-18T11:08:44.672Z,1003.58
2017-11-18T11:09:53.474Z,1003.42
2017-11-18T11:11:02.295Z,1003.60
2017-11-18T11:12:11.104Z,1003.44
2017-11-18T11:13:20.167Z,1003.47
2017-11-18T11:14:28.797Z,1003.45
2017-11-18T11:15:37.545Z,1003.62
2017-11-18T11:16:46.426Z,1003.19
2017-11-18T11:17:55.271Z,1003.47
2017-11-18T11:19:04.054Z,1003.81
2017-11-18T11:20:12.800Z,1003.31
2017-11-18T11:21:21.712Z,1003.30
2017-11-18T11:22:30.489Z,1003.37
2017-11-18T11:23:39.863Z,1003.23
2017-11-18T11:24:48.204Z,1003.33
2017-11-18T11:25:57.241Z,1003.26
2017-11-18T11:27:05.954Z,1003.30
2017-11-18T11:28:14.821Z,1003.19
2017-11-18T11:29:23.662Z,1003.17
2017-11-18T11:30:32.729Z,1003.30
2017-11-18T11:31:41.446Z,1003.10
2017-11-18T11:32:50.397Z,1003.08
2017-11-18T11:33:59.202Z,1003.27
2017-11-18T11:35:08.549Z,1003.33
2017-11-18T11:36:17.585Z,1003.44
2017-11-18T11:37:26.022Z,1003.29
2017-11-18T11:38:34.917Z,1003.05
2017-11-18T11:39:43.572Z,1003.02
2017-11-18T11:40:52.493Z,1003.02
2017-11-18T11:42:01.502Z,1002.87
2017-11-18T11:43:10.213Z,1003.02
2017-11-18T11:44:19.047Z,1003.27
2017-11-18T11:45:28.029Z,1003.03
2017-11-18T11:46:36.814Z,1003.41
2017-11-18T11:47:46.158Z,1003.40
2017-11-18T11:48:54.612Z,1002.99
2017-11-18T11:50:03.291Z,1002.88
2017-11-18T11:51:12.175Z,1003.06
2017-11-18T11:52:20.921Z,1002.99
2017-11-18T11:53:29.693Z,1003.11
2017-11-18T11:54:39.257Z,1002.93
2017-11-18T11:55:47.428Z,1003.27
2017-11-18T11:56:56.091Z,1002.86
2017-11-18T11:58:04.883Z,1003.11
2017-11-18T11:59:13.711Z,1002.90
2017-11-18T12:00:22.508Z,1002.86
2017-11-18T12:01:31.391Z,1002.73
2017-11-18T12:02:40.201Z,1002.95
2017-11-18T12:03:48.910Z,1002.87
2017-11-18T12:04:58.194Z,1003.12
2017-11-18T12:06:06.976Z,1002.83
2017-11-18T12:07:15.252Z,1002.85
2017-11-18T12:08:23.999Z,1003.02
2017-11-18T12:09:33.742Z,1002.82
2017-11-18T12:10:41.591Z,1002.91
2017-11-18T12:11:50.241Z,1002.92
2017-11-18T12:12:58.991Z,1002.84
2017-11-18T12:14:07.850Z,1002.79
2017-11-18T12:15:16.576Z,1002.77
2017-11-18T12:16:25.281Z,1003.04
2017-11-18T12:17:34.185Z,1002.73
2017-11-18T12:18:43.433Z,1002.90
2017-11-18T12:19:51.809Z,1002.97
2017-11-18T12:21:00.414Z,1002.75
2017-11-18T12:22:09.096Z,1002.59
2017-11-18T12:23:17.843Z,1002.54
2017-11-18T12:24:26.714Z,1002.60
2017-11-18T12:25:35.384Z,1002.79
2017-11-18T12:26:44.675Z,1002.65
2017-11-18T12:27:52.905Z,1002.54
2017-11-18T12:29:01.608Z,1002.47
2017-11-18T12:30:10.454Z,1002.47
2017-11-18T12:31:19.134Z,1002.59
2017-11-18T12:32:27.888Z,1002.43
2017-11-18T12:33:36.605Z,1002.43
2017-11-18T12:34:45.556Z,1002.37
2017-11-18T12:35:54.190Z,1002.46
2017-11-18T12:37:02.978Z,1002.44
2017-11-18T12:38:11.720Z,1002.42
2017-11-18T12:39:20.368Z,1002.34
2017-11-18T12:40:29.117Z,1002.38
2017-11-18T12:41:38.051Z,1002.30
2017-11-18T12:42:46.668Z,1002.34
2017-11-18T12:43:55.362Z,1002.35
2017-11-18T12:45:04.191Z,1002.28
2017-11-18T12:46:13.003Z,1002.26
2017-11-18T12:47:21.670Z,1002.27
2017-11-18T12:48:30.393Z,1002.29
2017-11-18T12:49:39.135Z,1002.18
2017-11-18T12:50:47.893Z,1002.26
2017-11-18T12:51:57.151Z,1002.36
2017-11-18T12:53:05.343Z,1002.33
2017-11-18T12:54:14.569Z,1002.43
2017-11-18T12:55:22.991Z,1002.36
2017-11-18T12:56:31.922Z,1002.34
2017-11-18T12:57:40.136Z,1002.32
2017-11-18T12:58:48.998Z,1002.32
2017-11-18T12:59:57.640Z,1002.29
2017-11-18T13:01:06.370Z,1002.20
2017-11-18T13:02:15.132Z,1002.14
2017-11-18T13:03:23.770Z,1002.35
2017-11-18T13:04:32.499Z,1002.17
2017-11-18T13:05:41.865Z,1002.33
2017-11-18T13:06:49.977Z,1002.33
2017-11-18T13:07:58.578Z,1002.25
2017-11-18T13:09:07.330Z,1002.32
2017-11-18T13:10:15.970Z,1002.31
2017-11-18T13:11:24.785Z,1002.16
2017-11-18T13:12:33.865Z,1002.25
2017-11-18T13:13:42.111Z,1002.15
2017-11-18T13:14:50.781Z,1002.24
2017-11-18T13:15:59.588Z,1002.28
2017-11-18T13:17:08.792Z,1002.24
2017-11-18T13:18:16.875Z,1002.28
2017-11-18T13:19:25.639Z,1002.20
2017-11-18T13:20:34.507Z,1002.25
2017-11-18T13:21:43.154Z,1002.14
2017-11-18T13:22:52.579Z,1002.04
2017-11-18T13:24:00.391Z,1002.09
2017-11-18T13:25:09.594Z,1002.09
2017-11-18T13:26:18.043Z,1002.11
2017-11-18T13:27:26.577Z,1002.24
2017-11-18T13:28:35.797Z,1002.25
2017-11-18T13:29:44.020Z,1002.25
2017-11-18T13:30:52.604Z,1002.27
2017-11-18T13:33:11.611Z,1002.33
2017-11-18T13:34:19.762Z,1002.17
2017-11-18T13:35:28.005Z,1002.16
2017-11-18T13:36:36.193Z,1002.08
2017-11-18T13:37:44.916Z,1002.16
2017-11-18T13:38:53.519Z,1002.15
2017-11-18T13:40:02.662Z,1002.16
2017-11-18T13:41:10.934Z,1002.15
2017-11-18T13:42:20.307Z,1002.14
2017-11-18T13:43:28.282Z,1002.10
2017-11-18T13:44:37.402Z,1002.19
2017-11-18T13:45:45.635Z,1002.14
2017-11-18T13:46:56.100Z,1002.10
2017-11-18T13:49:12.346Z,1002.13
2017-11-18T13:50:21.031Z,1002.03
2017-11-18T13:51:29.200Z,1002.01
2017-11-18T13:52:37.858Z,1001.96